createdAt,value
2022-08-07T00:00:54.002Z,13.01
2022-08-07T00:03:25.709Z,12.99
2022-08-07T00:05:53.998Z,12.91
2022-08-07T00:08:23.607Z,12.97
2022-08-07T00:10:57.232Z,13.01
2022-08-07T00:13:26.884Z,13.06
2022-08-07T00:15:57.146Z,12.97
2022-08-07T00:18:27.030Z,12.91
2022-08-07T00:21:01.926Z,12.67
2022-08-07T00:23:31.912Z,12.58
2022-08-07T00:26:13.105Z,12.61
2022-08-07T00:28:56.489Z,12.48
2022-08-07T00:31:51.530Z,12.46
2022-08-07T00:34:21.711Z,12.47
2022-08-07T00:36:49.826Z,12.40
2022-08-07T00:39:20.605Z,12.49
2022-08-07T00:42:01.890Z,12.51
2022-08-07T00:44:30.736Z,12.50
2022-08-07T00:47:03.085Z,12.46
2022-08-07T00:50:19.248Z,12.39
2022-08-07T00:52:22.547Z,12.34
2022-08-07T00:54:54.229Z,12.22
2022-08-07T00:57:23.010Z,12.01
2022-08-07T00:59:53.617Z,12.06
2022-08-07T01:02:29.242Z,12.09
2022-08-07T01:05:00.158Z,12.10
2022-08-07T01:07:31.207Z,12.04
2022-08-07T01:10:04.817Z,11.87
2022-08-07T01:12:36.869Z,11.99
2022-08-07T01:15:11.930Z,11.99
2022-08-07T01:17:48.331Z,11.79
2022-08-07T01:20:19.767Z,11.87
2022-08-07T01:23:00.417Z,11.68
2022-08-07T01:25:53.778Z,11.71
2022-08-07T01:28:25.310Z,11.82
2022-08-07T01:30:56.912Z,11.62
2022-08-07T01:33:53.700Z,11.65
2022-08-07T01:36:17.103Z,11.64
2022-08-07T01:38:48.782Z,11.64
2022-08-07T01:41:26.305Z,11.67
2022-08-07T01:43:59.113Z,11.65
2022-08-07T01:46:32.035Z,11.63
2022-08-07T01:49:01.706Z,11.67
2022-08-07T01:52:01.561Z,11.66
2022-08-07T01:54:33.178Z,11.68
2022-08-07T01:57:34.154Z,11.61
2022-08-07T02:00:12.856Z,11.53
2022-08-07T02:03:18.524Z,11.61
2022-08-07T02:05:43.439Z,11.53
2022-08-07T02:08:23.782Z,11.52
2022-08-07T02:10:59.660Z,11.53
2022-08-07T02:13:57.697Z,11.44
2022-08-07T02:16:28.663Z,11.50
2022-08-07T02:19:05.716Z,11.43
2022-08-07T02:21:58.486Z,11.41
2022-08-07T02:24:30.032Z,11.38
2022-08-07T02:27:02.917Z,11.39
2022-08-07T02:29:36.887Z,11.42
2022-08-07T02:32:23.488Z,11.26
2022-08-07T02:34:58.448Z,11.30
2022-08-07T02:37:34.193Z,11.34
2022-08-07T02:40:29.979Z,11.29
2022-08-07T02:43:07.664Z,11.13
2022-08-07T02:45:58.827Z,11.19
2022-08-07T02:48:31.793Z,11.11
2022-08-07T02:51:06.847Z,11.19
2022-08-07T02:53:39.457Z,11.10
2022-08-07T02:56:17.559Z,10.95
2022-08-07T02:58:54.313Z,10.85
2022-08-07T03:01:36.034Z,10.86
2022-08-07T03:04:12.532Z,10.98
2022-08-07T03:06:44.765Z,10.96
2022-08-07T03:09:41.843Z,10.87
2022-08-07T03:12:06.692Z,11.12
2022-08-07T03:14:40.802Z,11.08
2022-08-07T03:17:17.588Z,11.00
2022-08-07T03:19:54.950Z,10.80
2022-08-07T03:22:29.630Z,10.94
2022-08-07T03:25:00.923Z,10.95
2022-08-07T03:27:58.866Z,11.00
2022-08-07T03:30:27.942Z,11.02
2022-08-07T03:33:02.627Z,10.99
2022-08-07T03:35:43.509Z,11.07
2022-08-07T03:38:14.765Z,11.10
2022-08-07T03:40:45.554Z,11.19
2022-08-07T03:43:22.768Z,11.19
2022-08-07T03:45:57.039Z,11.15
2022-08-07T03:48:29.804Z,11.21
2022-08-07T03:51:00.266Z,11.14
2022-08-07T03:54:05.456Z,10.96
2022-08-07T03:56:33.188Z,11.10
2022-08-07T03:59:13.461Z,11.19
2022-08-07T04:01:47.798Z,11.32
2022-08-07T04:04:22.036Z,11.29
2022-08-07T04:07:00.103Z,11.34
2022-08-07T04:09:45.084Z,11.38
2022-08-07T04:12:26.622Z,11.20
2022-08-07T04:15:00.771Z,11.26
2022-08-07T04:18:31.244Z,11.46
2022-08-07T04:20:25.367Z,11.32
2022-08-07T04:23:01.368Z,11.27
2022-08-07T04:25:35.879Z,11.36
2022-08-07T04:28:10.386Z,11.46
2022-08-07T04:30:55.240Z,11.74
2022-08-07T04:33:31.899Z,11.73
2022-08-07T04:36:09.125Z,11.87
2022-08-07T04:38:40.401Z,11.98
2022-08-07T04:41:10.601Z,12.11
2022-08-07T04:44:12.515Z,12.17
2022-08-07T04:47:03.797Z,12.21
2022-08-07T04:50:03.589Z,12.34
2022-08-07T04:52:51.113Z,12.44
2022-08-07T04:58:23.766Z,12.59
2022-08-07T04:58:49.804Z,12.73
2022-08-07T05:01:21.816Z,12.95
2022-08-07T05:04:08.881Z,13.07
2022-08-07T05:06:55.009Z,13.18
2022-08-07T05:09:45.796Z,13.35
2022-08-07T05:12:27.208Z,13.59
2022-08-07T05:15:23.264Z,13.77
2022-08-07T05:18:08.618Z,13.92
2022-08-07T05:20:43.062Z,14.10
2022-08-07T05:23:17.933Z,14.10
2022-08-07T05:26:13.050Z,14.15
2022-08-07T05:28:42.166Z,14.27
2022-08-07T05:31:19.699Z,14.41
2022-08-07T05:34:04.766Z,14.55
2022-08-07T05:36:40.075Z,14.68
2022-08-07T05:40:17.898Z,14.77
2022-08-07T05:42:12.620Z,14.86
2022-08-07T05:44:52.813Z,14.90
2022-08-07T05:47:38.469Z,14.87
2022-08-07T05:50:22.376Z,14.91
2022-08-07T05:52:51.599Z,15.06
2022-08-07T05:55:21.819Z,15.17
2022-08-07T05:57:52.542Z,15.34
2022-08-07T06:00:22.043Z,15.29
2022-08-07T06:03:00.857Z,15.47
2022-08-07T06:05:31.422Z,15.62
2022-08-07T06:08:29.961Z,15.70
2022-08-07T06:10:56.994Z,15.73
2022-08-07T06:14:10.962Z,15.71
2022-08-07T06:16:16.683Z,16.06
2022-08-07T06:18:51.800Z,15.99
2022-08-07T06:22:16.875Z,16.42
2022-08-07T06:24:45.475Z,16.80
2022-08-07T06:27:05.576Z,16.76
2022-08-07T06:29:38.926Z,16.93
2022-08-07T06:32:10.208Z,17.18
2022-08-07T06:34:45.231Z,17.34
2022-08-07T06:37:17.173Z,16.96
2022-08-07T06:40:18.024Z,17.13
2022-08-07T06:42:40.989Z,17.29
2022-08-07T06:45:18.329Z,17.87
2022-08-07T06:47:57.180Z,18.03
2022-08-07T06:50:31.845Z,17.92
2022-08-07T06:53:04.620Z,18.18
2022-08-07T06:56:00.120Z,18.28
2022-08-07T06:58:28.803Z,18.56
2022-08-07T07:01:07.519Z,18.94
2022-08-07T07:03:48.175Z,26.23
2022-08-07T07:06:24.145Z,33.19
2022-08-07T07:08:56.990Z,34.25
2022-08-07T07:12:08.357Z,34.50
2022-08-07T07:14:21.827Z,38.74
2022-08-07T07:16:54.170Z,40.12
2022-08-07T07:19:56.198Z,39.31
2022-08-07T07:22:36.413Z,41.53
2022-08-07T07:26:31.560Z,41.71
2022-08-07T07:28:07.609Z,35.17
2022-08-07T07:30:57.431Z,35.88
2022-08-07T07:33:29.697Z,39.17
2022-08-07T07:36:05.449Z,34.14
2022-08-07T07:38:46.009Z,36.92
2022-08-07T07:41:19.316Z,39.02
2022-08-07T07:44:14.541Z,37.03
2022-08-07T07:46:53.941Z,38.69
2022-08-07T07:50:34.299Z,37.81
2022-08-07T07:52:18.055Z,39.56
2022-08-07T07:54:51.201Z,39.18
2022-08-07T07:57:43.822Z,38.09
2022-08-07T08:00:15.044Z,36.06
2022-08-07T08:03:05.611Z,34.41
2022-08-07T08:05:51.017Z,38.44
2022-08-07T08:08:35.239Z,37.17
2022-08-07T08:11:16.163Z,37.46
2022-08-07T08:13:54.444Z,38.88
2022-08-07T08:16:29.697Z,36.00
2022-08-07T08:19:09.726Z,35.51
2022-08-07T08:22:05.802Z,36.45
2022-08-07T08:25:04.759Z,38.83
2022-08-07T08:27:56.753Z,36.25
2022-08-07T08:30:34.415Z,30.88
2022-08-07T08:33:10.293Z,31.29
2022-08-07T08:35:50.711Z,37.82
2022-08-07T08:38:29.398Z,38.27
2022-08-07T08:41:03.833Z,32.39
2022-08-07T08:43:42.919Z,28.47
2022-08-07T08:46:35.109Z,24.37
2022-08-07T08:49:15.009Z,29.55
2022-08-07T08:52:12.627Z,33.00
2022-08-07T08:54:48.366Z,34.41
2022-08-07T08:57:27.394Z,33.80
2022-08-07T09:00:03.564Z,33.93
2022-08-07T09:02:41.952Z,33.47
2022-08-07T09:05:37.230Z,31.79
2022-08-07T09:08:24.234Z,31.70
2022-08-07T09:11:08.288Z,31.61
2022-08-07T09:13:42.190Z,30.00
2022-08-07T09:16:22.505Z,29.95
2022-08-07T09:19:51.322Z,33.50
2022-08-07T09:24:28.134Z,27.87
2022-08-07T09:25:17.547Z,31.78
2022-08-07T09:28:01.092Z,33.76
2022-08-07T09:30:38.486Z,33.67
2022-08-07T09:33:41.090Z,32.57
2022-08-07T09:36:15.731Z,31.44
2022-08-07T09:38:54.003Z,32.52
2022-08-07T09:41:43.281Z,34.11
2022-08-07T09:44:52.216Z,34.97
2022-08-07T09:48:01.523Z,36.15
2022-08-07T09:50:40.587Z,34.62
2022-08-07T09:53:12.528Z,31.05
2022-08-07T09:56:02.692Z,27.59
2022-08-07T09:58:56.817Z,26.02
2022-08-07T10:01:51.326Z,28.66
2022-08-07T10:04:47.769Z,31.17
2022-08-07T10:07:39.762Z,27.73
2022-08-07T10:10:30.501Z,30.22
2022-08-07T10:13:54.781Z,31.03
2022-08-07T10:16:23.190Z,31.13
2022-08-07T10:19:21.393Z,33.30
2022-08-07T10:22:15.742Z,31.89
2022-08-07T10:24:57.556Z,30.10
2022-08-07T10:27:51.300Z,30.74
2022-08-07T10:30:27.863Z,32.09
2022-08-07T10:34:05.784Z,32.19
2022-08-07T10:36:41.721Z,31.37
2022-08-07T10:39:41.923Z,32.06
2022-08-07T10:42:31.344Z,31.73
2022-08-07T10:45:45.453Z,30.73
2022-08-07T10:48:35.118Z,31.60
2022-08-07T10:51:39.351Z,30.39
2022-08-07T10:54:17.382Z,29.92
2022-08-07T10:56:58.542Z,27.59
2022-08-07T10:59:37.457Z,26.95
2022-08-07T11:02:27.242Z,28.08
2022-08-07T11:05:12.022Z,29.79
2022-08-07T11:07:58.698Z,28.83
2022-08-07T11:10:37.381Z,29.07
2022-08-07T11:13:42.315Z,30.55
2022-08-07T11:16:07.541Z,30.54
2022-08-07T11:18:44.819Z,31.19
2022-08-07T11:21:29.084Z,29.82
2022-08-07T11:24:08.487Z,29.27
2022-08-07T11:26:47.994Z,28.18
2022-08-07T11:29:41.961Z,28.05
2022-08-07T11:32:26.117Z,27.66
2022-08-07T11:34:58.371Z,28.78
2022-08-07T11:37:58.372Z,28.91
2022-08-07T11:40:50.279Z,29.81
2022-08-07T11:43:29.674Z,28.98
2022-08-07T11:46:23.413Z,28.45
2022-08-07T11:49:50.458Z,27.98
2022-08-07T11:52:05.074Z,27.32
2022-08-07T11:54:54.810Z,27.36
2022-08-07T11:57:59.506Z,27.38
2022-08-07T12:00:39.494Z,27.77
2022-08-07T12:03:41.753Z,27.76
2022-08-07T12:06:37.121Z,27.67
2022-08-07T12:09:16.397Z,27.03
2022-08-07T12:12:09.363Z,26.53
2022-08-07T12:14:51.445Z,27.02
2022-08-07T12:17:34.157Z,27.09
2022-08-07T12:20:19.970Z,27.72
2022-08-07T12:23:15.192Z,26.23
2022-08-07T12:26:06.082Z,26.35
2022-08-07T12:28:52.988Z,27.24
2022-08-07T12:31:53.167Z,27.06
2022-08-07T12:34:23.019Z,24.91
2022-08-07T12:36:56.032Z,26.08
2022-08-07T12:39:44.347Z,26.50
2022-08-07T12:42:27.145Z,26.92
2022-08-07T12:44:59.399Z,26.32
2022-08-07T12:47:37.492Z,26.65
2022-08-07T12:50:38.611Z,27.09
2022-08-07T12:53:17.771Z,26.83
2022-08-07T12:56:03.575Z,26.81
2022-08-07T12:58:37.577Z,26.85
2022-08-07T13:01:22.030Z,26.90
2022-08-07T13:04:06.437Z,27.23
2022-08-07T13:06:54.401Z,26.94
2022-08-07T13:10:28.404Z,27.62
2022-08-07T13:12:57.303Z,27.34
2022-08-07T13:15:37.181Z,27.90
2022-08-07T13:18:26.175Z,27.48
2022-08-07T13:21:03.929Z,27.32
2022-08-07T13:24:01.624Z,27.40
2022-08-07T13:26:35.433Z,27.75
2022-08-07T13:29:11.821Z,27.15
2022-08-07T13:32:32.262Z,27.84
2022-08-07T13:35:08.969Z,26.95
2022-08-07T13:37:59.055Z,26.65
2022-08-07T13:40:35.098Z,27.38
2022-08-07T13:43:15.060Z,26.67
2022-08-07T13:46:12.195Z,27.34
2022-08-07T13:48:39.077Z,27.49
2022-08-07T13:51:26.908Z,26.42
2022-08-07T13:54:01.709Z,26.66
2022-08-07T13:56:35.281Z,26.21
2022-08-07T13:59:12.753Z,27.74
2022-08-07T14:01:51.505Z,28.11
2022-08-07T14:04:29.921Z,27.26
2022-08-07T14:07:09.432Z,26.35
2022-08-07T14:10:12.327Z,26.71
2022-08-07T14:12:41.610Z,27.14
2022-08-07T14:15:19.511Z,27.00
2022-08-07T14:18:24.305Z,27.38
2022-08-07T14:20:54.774Z,27.81
2022-08-07T14:23:59.230Z,27.69
2022-08-07T14:26:30.070Z,27.35
2022-08-07T14:30:05.757Z,27.21
2022-08-07T14:31:56.445Z,27.06
2022-08-07T14:34:30.095Z,27.40
2022-08-07T14:37:01.755Z,27.82
2022-08-07T14:42:32.335Z,28.33
2022-08-07T14:45:22.455Z,27.92
2022-08-07T14:47:58.463Z,27.06
2022-08-07T14:50:29.028Z,27.66
2022-08-07T14:53:09.845Z,27.85
2022-08-07T14:58:33.175Z,26.89
2022-08-07T15:03:53.377Z,27.35
2022-08-07T15:06:25.398Z,27.01
2022-08-07T15:08:54.900Z,28.46
2022-08-07T15:11:50.937Z,28.96
2022-08-07T15:14:22.308Z,28.08
2022-08-07T15:16:55.486Z,27.24
2022-08-07T15:22:29.507Z,28.31
2022-08-07T15:28:18.774Z,28.34
2022-08-07T15:33:43.065Z,28.03
2022-08-07T15:36:14.033Z,27.95
2022-08-07T15:39:05.603Z,28.46
2022-08-07T15:42:46.897Z,29.06
2022-08-07T15:44:31.487Z,27.17
2022-08-07T15:47:09.100Z,26.06
2022-08-07T15:50:03.725Z,25.68
2022-08-07T15:52:37.279Z,26.69
2022-08-07T15:55:11.604Z,27.13
2022-08-07T15:57:48.393Z,26.93
2022-08-07T16:00:31.195Z,27.28
2022-08-07T16:03:21.520Z,27.25
2022-08-07T16:05:51.898Z,27.81
2022-08-07T16:08:31.591Z,28.07
2022-08-07T16:11:27.084Z,28.33
2022-08-07T16:14:09.021Z,28.20
2022-08-07T16:16:57.234Z,27.76
2022-08-07T16:19:59.656Z,27.40
2022-08-07T16:22:54.446Z,28.54
2022-08-07T16:25:55.006Z,28.52
2022-08-07T16:30:06.877Z,28.70
2022-08-07T16:31:57.628Z,27.39
2022-08-07T16:34:39.510Z,26.99
2022-08-07T16:38:04.243Z,27.20
2022-08-07T16:40:57.412Z,26.67
2022-08-07T16:44:03.701Z,27.13
2022-08-07T16:47:05.973Z,26.93
2022-08-07T16:50:27.341Z,26.90
2022-08-07T16:54:02.037Z,26.81
2022-08-07T16:56:07.210Z,27.07
2022-08-07T16:59:14.429Z,27.42
2022-08-07T17:01:41.270Z,26.56
2022-08-07T17:04:24.816Z,26.05
2022-08-07T17:07:07.599Z,26.70
2022-08-07T17:10:07.354Z,26.28
2022-08-07T17:12:45.452Z,25.68
2022-08-07T17:15:21.513Z,25.71
2022-08-07T17:18:03.492Z,25.48
2022-08-07T17:20:35.503Z,25.35
2022-08-07T17:23:17.044Z,25.12
2022-08-07T17:25:57.203Z,25.44
2022-08-07T17:28:35.239Z,24.66
2022-08-07T17:31:16.974Z,24.66
2022-08-07T17:34:15.634Z,24.87
2022-08-07T17:36:57.766Z,24.83
2022-08-07T17:39:58.188Z,24.74
2022-08-07T17:42:58.283Z,24.46
2022-08-07T17:45:32.125Z,24.68
2022-08-07T17:48:10.280Z,24.70
2022-08-07T17:50:54.234Z,24.27
2022-08-07T17:54:00.021Z,23.80
2022-08-07T17:56:28.642Z,23.40
2022-08-07T17:59:10.554Z,23.24
2022-08-07T18:01:56.831Z,23.17
2022-08-07T18:04:34.807Z,23.18
2022-08-07T18:07:20.521Z,23.08
2022-08-07T18:10:06.726Z,23.02
2022-08-07T18:12:52.450Z,22.60
2022-08-07T18:15:32.380Z,22.35
2022-08-07T18:18:45.957Z,22.19
2022-08-07T18:21:40.129Z,21.99
2022-08-07T18:24:02.170Z,21.88
2022-08-07T18:26:52.767Z,21.58
2022-08-07T18:30:05.571Z,21.30
2022-08-07T18:32:38.117Z,21.03
2022-08-07T18:35:18.305Z,20.88
2022-08-07T18:38:55.946Z,20.75
2022-08-07T18:41:09.057Z,20.58
2022-08-07T18:43:57.866Z,20.50
2022-08-07T18:46:32.629Z,20.18
2022-08-07T18:50:32.362Z,19.83
2022-08-07T18:52:38.899Z,19.86
2022-08-07T18:55:41.110Z,19.65
2022-08-07T18:58:26.543Z,19.77
2022-08-07T19:01:06.239Z,19.62
2022-08-07T19:03:49.639Z,19.28
2022-08-07T19:06:33.739Z,19.19
2022-08-07T19:09:57.245Z,19.04
2022-08-07T19:12:15.645Z,18.68
2022-08-07T19:15:00.694Z,18.62
2022-08-07T19:18:01.614Z,18.33
2022-08-07T19:21:08.304Z,18.12
2022-08-07T19:23:57.999Z,18.11
2022-08-07T19:27:01.976Z,18.03
2022-08-07T19:30:59.992Z,17.98
2022-08-07T19:32:27.715Z,17.90
2022-08-07T19:35:03.864Z,17.89
2022-08-07T19:37:57.076Z,17.89
2022-08-07T19:40:31.667Z,17.57
2022-08-07T19:43:09.200Z,17.57
2022-08-07T19:46:07.180Z,17.69
2022-08-07T19:48:42.722Z,17.62
2022-08-07T19:51:20.261Z,17.46
2022-08-07T19:54:33.985Z,17.26
2022-08-07T19:57:52.390Z,16.92
2022-08-07T19:59:41.385Z,16.84
2022-08-07T20:02:19.828Z,16.80
2022-08-07T20:04:52.008Z,16.82
2022-08-07T20:07:46.156Z,16.95
2022-08-07T20:10:37.838Z,17.01
2022-08-07T20:13:22.508Z,17.08
2022-08-07T20:15:53.884Z,17.02
2022-08-07T20:18:32.350Z,16.96
2022-08-07T20:21:03.070Z,17.02
2022-08-07T20:23:41.034Z,16.96
2022-08-07T20:26:15.278Z,16.64
2022-08-07T20:29:01.628Z,16.70
2022-08-07T20:31:45.113Z,16.81
2022-08-07T20:34:34.406Z,16.57
2022-08-07T20:37:10.145Z,16.49
2022-08-07T20:40:02.584Z,16.34
2022-08-07T20:42:31.100Z,16.29
2022-08-07T20:45:02.080Z,15.91
2022-08-07T20:47:56.223Z,15.94
2022-08-07T20:50:23.444Z,16.05
2022-08-07T20:52:52.915Z,16.11
2022-08-07T20:55:23.965Z,15.92
2022-08-07T20:58:03.529Z,15.65
2022-08-07T21:00:44.310Z,15.55
2022-08-07T21:03:15.117Z,15.65
2022-08-07T21:05:54.759Z,15.80
2022-08-07T21:08:36.769Z,15.83
2022-08-07T21:11:10.769Z,15.90
2022-08-07T21:14:16.925Z,15.98
2022-08-07T21:16:56.482Z,15.96
2022-08-07T21:19:32.035Z,15.83
2022-08-07T21:22:19.848Z,15.83
2022-08-07T21:25:12.101Z,15.64
2022-08-07T21:28:01.915Z,15.58
2022-08-07T21:30:41.921Z,15.56
2022-08-07T21:33:21.371Z,15.50
2022-08-07T21:36:05.320Z,15.50
2022-08-07T21:38:50.019Z,15.47
2022-08-07T21:41:23.445Z,15.24
2022-08-07T21:43:58.083Z,15.13
2022-08-07T21:46:37.021Z,15.05
2022-08-07T21:49:16.160Z,14.94
2022-08-07T21:51:59.835Z,15.10
2022-08-07T21:54:37.337Z,15.15
2022-08-07T21:57:31.123Z,15.16
2022-08-07T22:00:22.306Z,14.86
2022-08-07T22:02:58.083Z,14.86
2022-08-07T22:05:44.258Z,14.92
2022-08-07T22:08:18.526Z,14.93
2022-08-07T22:10:50.687Z,14.95
2022-08-07T22:13:24.208Z,14.82
2022-08-07T22:16:42.220Z,14.82
2022-08-07T22:19:08.094Z,14.80
2022-08-07T22:22:02.786Z,14.86
2022-08-07T22:24:35.717Z,14.84
2022-08-07T22:27:10.930Z,14.41
2022-08-07T22:29:50.356Z,14.35
2022-08-07T22:32:25.369Z,14.22
2022-08-07T22:34:55.791Z,14.36
2022-08-07T22:38:03.717Z,14.47
2022-08-07T22:40:31.144Z,14.47
2022-08-07T22:43:04.226Z,14.51
2022-08-07T22:46:40.974Z,14.49
2022-08-07T22:48:55.378Z,14.27
2022-08-07T22:51:54.279Z,13.96
2022-08-07T22:55:17.345Z,13.94
2022-08-07T22:58:17.433Z,13.87
2022-08-07T23:01:06.308Z,13.95
2022-08-07T23:03:57.949Z,14.00
2022-08-07T23:06:51.502Z,13.98
2022-08-07T23:10:05.322Z,13.94
2022-08-07T23:12:45.453Z,14.00
2022-08-07T23:16:05.546Z,13.90
2022-08-07T23:18:25.966Z,13.80
2022-08-07T23:21:07.455Z,13.88
2022-08-07T23:24:06.780Z,13.88
2022-08-07T23:26:59.256Z,13.76
2022-08-07T23:30:38.081Z,13.60
2022-08-07T23:34:22.628Z,13.69
2022-08-07T23:35:55.598Z,13.71
2022-08-07T23:38:42.945Z,13.60
2022-08-07T23:41:24.522Z,13.51
2022-08-07T23:44:18.041Z,13.62
2022-08-07T23:47:27.028Z,13.51
2022-08-07T23:50:11.869Z,13.45
2022-08-07T23:52:59.710Z,13.50
2022-08-07T23:55:52.617Z,13.34
2022-08-07T23:58:26.805Z,13.24
